Blue Hill Meteorological Observatory

42° 12' 44"N, 71° 06' 53"W, Elevation 635 ft.
Eastern Time

Hourly observations for the last 72 hours

Date Time Temperature (°F) Humi-
dity

(%)
Wind
(mph)
Pressure Rain (in) Sun
(W/m2)
ET
(in)
Air Dew 6 Hour 1 Hr 3 Hr 6 Hr Day
Alt
(in)
Sea
Level

(mb)
Max Min
18 18:00 42.9 39.3 87 SSE 14 G 16 29.68 1005.0 0.01 0 0.054
18 17:00 42.5 37.1 81 SE 12 G 16 29.70 1005.7 0.01 0.01 0 0.052
18 16:00 42.7 34.3 72 SE 11 G 14 29.72 1006.3 0.00 5 0.050
18 15:00 42.6 32.4 67 S 10 G 14 29.76 1007.7 0.00 65 0.047
18 14:00 42.3 30.6 63 S 9 G 15 29.79 1008.9 0.00 102 0.043
18 13:00 42.4 27.8 42.7 27.5 56 SSW 14 G 20 29.81 1009.4 0.00 197 0.036
18 12:00 41.9 21.6 44 SSW 14 G 20 29.85 1011.0 0.00 325 0.029
18 11:00 39.4 18.2 42 SSW 8 G 14 29.90 1012.5 0.00 190 0.023
18 10:00 38.2 19.2 46 S 8 G 11 29.93 1013.4 0.00 174 0.017
18 09:00 35.6 15.8 44 SW 9 G 12 29.93 1013.6 0.00 183 0.012
18 08:00 31.7 18.6 58 W 8 G 12 29.96 1014.7 0.00 165 0.009
18 07:00 27.5 18.3 28.1 26.1 68 W 12 G 16 29.97 1014.8 0.00 21 0.008
18 06:00 26.1 18.6 73 W 12 G 14 29.97 1014.8 0.00 0 0.007
18 05:00 26.3 18.5 72 W 12 G 17 29.97 1015.0 0.00 0 0.006
18 04:00 27.2 19.0 71 WSW 10 G 11 29.95 1014.3 0.00 0 0.005
18 03:00 27.0 18.5 70 WSW 9 G 12 29.98 1015.1 0.00 0 0.004
18 02:00 27.9 17.3 64 W 9 G 14 29.98 1015.1 0.00 0 0.002
18 01:00 28.1 16.4 33.0 28.1 61 WNW 11 G 18 29.97 1015.0 0.00 0 0.000
18 00:00 29.7 15.5 55 NW 14 G 18 29.95 1014.3 0.00 0 0.094
17 23:00 30.6 15.9 54 NW 15 G 19 29.96 1014.5 0.00 0 0.091
17 22:00 31.4 16.7 54 NW 15 G 19 29.96 1014.7 0.00 0 0.088
17 21:00 31.3 17.8 57 NW 12 G 17 29.98 1015.1 0.00 0 0.086
17 20:00 31.5 17.6 56 NW 11 G 19 29.98 1015.2 0.00 0 0.084
17 19:00 32.8 18.0 40.9 32.8 54 WNW 11 G 17 29.96 1014.5 0.00 0 0.081
17 18:00 33.8 20.2 57 WNW 11 G 20 29.95 1014.1 0.00 0 0.078
17 17:00 35.7 20.7 54 WNW 14 G 24 29.92 1013.3 0.00 0 0.075
17 16:00 37.9 22.7 54 WNW 14 G 23 29.89 1012.3 0.00 19 0.070
17 15:00 39.9 24.2 53 NW 13 G 24 29.86 1011.1 0.00 25 0.063
17 14:00 40.6 26.6 57 WNW 21 G 32 29.84 1010.6 0.00 301 0.053
17 13:00 40.6 27.8 40.8 35.2 60 WNW 13 G 29 29.83 1010.1 0.00 408 0.043
17 12:00 39.3 27.0 61 NW 17 G 35 29.84 1010.4 0.00 450 0.033
17 11:00 38.5 27.8 65 NW 24 G 35 29.85 1010.9 0.00 84 0.024
17 10:00 38.4 28.8 68 NW 20 G 31 29.86 1011.1 0.00 482 0.017
17 09:00 37.5 29.6 73 NW 18 G 32 29.84 1010.6 0.00 156 0.011
17 08:00 35.7 29.2 77 WNW 21 G 35 29.81 1009.5 0.00 213 0.008
17 07:00 35.2 29.7 37.1 35.1 80 WNW 22 G 32 29.78 1008.5 0.00 21 0.006
17 06:00 36.2 30.3 79 NW 18 G 30 29.76 1007.7 0.00 0 0.004
17 05:00 36.3 32.2 85 NW 12 G 21 29.73 1006.9 0.00 0 0.003
17 04:00 36.5 32.7 86 WNW 15 G 22 29.71 1006.0 0.00 0 0.002
17 03:00 36.4 33.2 88 WNW 15 G 23 29.70 1005.8 0.00 0 0.001
17 02:00 36.7 33.8 89 WNW 17 G 25 29.69 1005.6 0.00 0 0.000
17 01:00 37.0 34.9 40.9 36.9 92 WNW 18 G 25 29.68 1005.0 0.00 0 0.000
17 00:00 37.4 35.8 94 W 14 G 19 29.68 1005.1 0.18 0 0.034
16 23:00 38.4 37.1 95 WNW 16 G 22 29.68 1005.1 0.18 0 0.034
16 22:00 39.2 37.9 95 W 16 G 20 29.69 1005.4 0.18 0 0.034
16 21:00 40.8 39.7 96 WNW 14 G 19 29.70 1005.8 0.18 0 0.034
16 20:00 40.7 39.9 97 WNW 14 G 19 29.70 1005.8 0.18 0 0.034
16 19:00 40.2 39.2 46.9 40.1 96 WNW 9 G 13 29.70 1005.7 0.02 0.03 0.17 0.18 0 0.034
16 18:00 44.4 43.6 97 WNW 11 G 20 29.68 1005.3 0.16 0 0.034
16 17:00 45.4 44.3 96 W 8 G 10 29.67 1004.6 0.01 0.16 0 0.034
16 16:00 46.4 45.3 96 WSW 7 G 10 29.68 1005.2 0.03 0.14 0.15 19 0.033
16 15:00 46.6 45.5 96 SW 5 G 9 29.70 1005.7 0.03 0.12 33 0.032
16 14:00 46.5 45.1 95 S 5 G 9 29.72 1006.4 0.08 0.09 104 0.030
16 13:00 46.7 43.9 49.8 40.9 90 SSE 11 G 23 29.72 1006.4 0.01 0.01 30 0.025
16 12:00 47.4 42.2 82 SE 15 G 30 29.77 1008.0 0.01 169 0.018
16 11:00 47.5 42.3 82 SSE 19 G 30 29.83 1010.2 0.01 186 0.013
16 10:00 43.6 40.3 88 SSE 15 G 27 29.88 1012.0 0.01 0.01 134 0.011
16 09:00 41.6 38.9 90 SE 19 G 26 29.91 1012.9 0.01 0.01 32 0.009
16 08:00 41.5 37.6 86 SE 20 G 26 29.94 1013.8 0.00 26 0.007
16 07:00 40.9 36.7 41.0 36.5 85 SE 19 G 27 29.95 1014.4 0.00 7 0.006
16 06:00 40.3 36.4 86 SE 17 G 27 29.97 1015.0 0.00 0 0.005
16 05:00 38.9 35.4 87 SE 15 G 25 30.01 1016.2 0.00 0 0.004
16 04:00 38.4 34.9 87 SE 12 G 17 30.03 1017.1 0.00 0 0.003
16 03:00 38.3 34.5 86 SE 12 G 16 30.05 1017.6 0.00 0 0.002
16 02:00 37.9 34.4 87 SE 10 G 15 30.08 1018.8 0.00 0 0.001
16 01:00 36.6 32.8 36.7 34.3 86 SE 14 G 18 30.10 1019.4 0.00 0 0.000
16 00:00 35.7 31.3 84 SE 13 G 17 30.12 1020.0 0.00 0 0.046
15 23:00 35.3 30.4 82 ESE 11 G 15 30.11 1019.8 0.00 0 0.045
15 22:00 34.7 30.1 83 ESE 10 G 13 30.15 1021.0 0.00 0 0.044
15 21:00 35.1 30.2 82 E 9 G 12 30.17 1021.9 0.00 0 0.043
15 20:00 34.6 29.7 82 E 10 G 12 30.18 1022.0 0.00 0 0.042
15 19:00 34.3 29.1 41.1 34.1 81 E 10 G 13 30.19 1022.5 0.00 0 0.041

Data generated by WxSolution Version 1.9.0.6, Build 2017.01.14.